Time;durP1;ratioP1;P1;durP2;ratioP2;P2;SDS_P1;SDS_P2;PMS_P1;PMS_P2;Temp;Humidity;BMP_temperature;BMP_pressure;BME280_temperature;BME280_humidity;BME280_pressure;Samples;Min_cycle;Max_cycle;Signal;HPM_P1;HPM_P2
2023/05/13 00:00:50;;;;;;;0.10;0.05;;;9.90;99.90;;;;;;5046894;28;20048;-83
2023/05/13 00:03:15;;;;;;;1.35;1.05;;;9.90;99.90;;;;;;5046943;28;20045;-82
2023/05/13 00:05:41;;;;;;;0.55;0.55;;;9.90;99.90;;;;;;5036926;28;20373;-82
2023/05/13 00:08:07;;;;;;;0.17;0.15;;;9.80;99.90;;;;;;5068958;28;20097;-82
2023/05/13 00:10:33;;;;;;;0.80;0.65;;;9.80;99.90;;;;;;5072027;28;20059;-82
2023/05/13 00:12:59;;;;;;;0.30;0.30;;;9.80;99.90;;;;;;5072099;28;20057;-82
2023/05/13 00:15:25;;;;;;;0.52;0.30;;;9.70;99.90;;;;;;5071702;28;20301;-81
2023/05/13 00:17:51;;;;;;;0.50;0.40;;;10.00;99.90;;;;;;5071875;28;20049;-82
2023/05/13 00:20:16;;;;;;;0.10;0.10;;;9.70;99.90;;;;;;5071278;28;20025;-83
2023/05/13 00:22:42;;;;;;;0.55;0.43;;;9.60;99.90;;;;;;5071788;28;20073;-83
2023/05/13 00:25:08;;;;;;;1.65;1.08;;;9.60;99.90;;;;;;5067099;28;20477;-82
2023/05/13 00:27:34;;;;;;;0.52;0.43;;;9.50;99.90;;;;;;5042718;28;20037;-82
2023/05/13 00:30:00;;;;;;;1.88;1.67;;;9.40;99.90;;;;;;5048684;28;20032;-81
2023/05/13 00:32:26;;;;;;;0.70;0.50;;;9.50;99.90;;;;;;5052748;28;20050;-83
2023/05/13 00:34:52;;;;;;;0.25;0.20;;;9.40;99.90;;;;;;5057961;28;20480;-82
2023/05/13 00:37:17;;;;;;;0.70;0.65;;;10.00;99.90;;;;;;5056995;28;20407;-82
2023/05/13 00:39:43;;;;;;;0.95;0.40;;;9.40;99.90;;;;;;5056694;28;20041;-82
2023/05/13 00:42:12;;;;;;;0.22;0.22;;;9.40;99.90;;;;;;5056410;28;20041;-82
2023/05/13 00:44:38;;;;;;;1.23;0.75;;;9.40;99.90;;;;;;5057414;28;20132;-81
2023/05/13 00:47:05;;;;;;;4.63;1.20;;;9.40;99.90;;;;;;5055182;28;20080;-83
2023/05/13 00:49:32;;;;;;;1.17;0.80;;;9.40;99.90;;;;;;5054796;28;20045;-82
2023/05/13 00:51:58;;;;;;;1.85;1.45;;;9.40;99.90;;;;;;5054100;28;20048;-82
2023/05/13 00:54:24;;;;;;;15.60;0.70;;;9.40;99.90;;;;;;5056099;28;20077;-83
2023/05/13 00:56:53;;;;;;;0.38;0.38;;;9.50;99.90;;;;;;5048128;28;20053;-83
2023/05/13 00:59:19;;;;;;;0.55;0.55;;;9.40;99.90;;;;;;5049340;28;20045;-82
2023/05/13 01:02:09;;;;;;;0.50;0.47;;;9.40;99.90;;;;;;5053429;28;20047;-82
2023/05/13 01:04:43;;;;;;;1.17;1.08;;;9.30;99.90;;;;;;5053789;28;20041;-82
2023/05/13 01:07:45;;;;;;;1.10;0.98;;;9.30;99.90;;;;;;5039884;28;20724;-82
2023/05/13 01:10:18;;;;;;;0.80;0.60;;;9.30;99.90;;;;;;5030080;28;20067;-83
2023/05/13 01:12:45;;;;;;;0.10;0.10;;;9.30;99.90;;;;;;5033356;28;20486;-83
2023/05/13 01:15:17;;;;;;;0.80;0.52;;;9.30;99.90;;;;;;5041594;28;20072;-83
2023/05/13 01:17:49;;;;;;;0.73;0.65;;;9.20;99.90;;;;;;5054372;28;20045;-82
2023/05/13 01:20:19;;;;;;;2.30;1.08;;;9.10;99.90;;;;;;5055328;28;20047;-81
2023/05/13 01:22:45;;;;;;;0.73;0.65;;;9.10;99.90;;;;;;5055712;28;20113;-83
2023/05/13 01:25:10;;;;;;;0.40;0.40;;;9.00;99.90;;;;;;5057385;28;20060;-83
2023/05/13 01:27:36;;;;;;;0.52;0.35;;;9.00;99.90;;;;;;5040367;28;20046;-83
2023/05/13 01:30:02;;;;;;;0.40;0.40;;;8.80;99.90;;;;;;5036102;28;20049;-83
2023/05/13 01:32:28;;;;;;;1.95;0.90;;;8.80;99.90;;;;;;5035316;28;20042;-83
2023/05/13 01:34:55;;;;;;;0.20;0.20;;;8.80;99.90;;;;;;5048204;28;20041;-83
2023/05/13 01:37:21;;;;;;;0.70;0.47;;;9.10;99.90;;;;;;5039079;28;20476;-83
2023/05/13 01:39:47;;;;;;;0.90;0.80;;;8.90;99.90;;;;;;5052807;28;20067;-83
2023/05/13 01:42:13;;;;;;;1.00;0.82;;;8.90;99.90;;;;;;5053632;28;20064;-82
2023/05/13 01:44:38;;;;;;;0.63;0.63;;;8.90;99.90;;;;;;5050841;28;20044;-82
2023/05/13 01:47:04;;;;;;;0.40;0.20;;;8.90;99.90;;;;;;5035163;28;20037;-82
2023/05/13 01:49:30;;;;;;;0.43;0.43;;;8.90;99.90;;;;;;5042706;28;20048;-82
2023/05/13 01:51:56;;;;;;;1.08;0.98;;;8.90;99.90;;;;;;5052192;28;20045;-82
2023/05/13 01:54:22;;;;;;;1.90;1.13;;;8.80;99.90;;;;;;5052912;28;20049;-81
2023/05/13 01:56:47;;;;;;;0.65;0.63;;;8.80;99.90;;;;;;5049560;28;20063;-82
2023/05/13 01:59:13;;;;;;;0.20;0.15;;;8.70;99.90;;;;;;5051274;28;20095;-82
2023/05/13 02:01:39;;;;;;;0.50;0.30;;;8.60;99.90;;;;;;5051072;28;20045;-82
2023/05/13 02:04:05;;;;;;;0.65;0.63;;;8.50;99.90;;;;;;5048533;28;20063;-83
2023/05/13 02:06:31;;;;;;;0.93;0.73;;;8.60;99.90;;;;;;5041600;28;20045;-82
2023/05/13 02:08:56;;;;;;;0.25;0.25;;;8.50;99.90;;;;;;5053635;28;20048;-82
2023/05/13 02:11:22;;;;;;;0.17;0.17;;;8.50;99.90;;;;;;5060491;28;20040;-82
2023/05/13 02:13:48;;;;;;;2.65;1.60;;;8.60;99.90;;;;;;5059503;28;20613;-81
2023/05/13 02:16:15;;;;;;;0.10;0.10;;;8.50;99.90;;;;;;5057311;28;20041;-83
2023/05/13 02:18:41;;;;;;;2.67;0.70;;;8.50;99.90;;;;;;5058065;28;20044;-82
2023/05/13 02:21:06;;;;;;;0.55;0.43;;;8.50;99.90;;;;;;5046557;28;20048;-82
2023/05/13 02:23:32;;;;;;;0.30;0.30;;;8.50;99.90;;;;;;5037299;28;20056;-82
2023/05/13 02:25:57;;;;;;;0.30;0.30;;;8.50;99.90;;;;;;5036767;28;20037;-82
2023/05/13 02:28:23;;;;;;;0.10;0.10;;;8.40;99.90;;;;;;5035466;28;20426;-83
2023/05/13 02:30:49;;;;;;;0.10;0.10;;;8.50;99.90;;;;;;5036461;28;20049;-83
2023/05/13 02:33:14;;;;;;;5.00;0.65;;;8.30;99.90;;;;;;5036307;28;20052;-82
2023/05/13 02:35:40;;;;;;;0.28;0.25;;;8.80;99.90;;;;;;5032401;28;20041;-82
2023/05/13 02:38:08;;;;;;;0.63;0.63;;;8.30;99.90;;;;;;5031806;28;20113;-83
2023/05/13 02:40:34;;;;;;;0.35;0.32;;;8.30;99.90;;;;;;5030170;28;20197;-82
2023/05/13 02:43:00;;;;;;;0.65;0.65;;;8.30;99.90;;;;;;5029366;28;20161;-82
2023/05/13 02:45:25;;;;;;;0.45;0.35;;;8.30;99.90;;;;;;5029656;28;20518;-82
2023/05/13 02:47:51;;;;;;;1.70;0.82;;;8.30;99.90;;;;;;5029889;28;20095;-83
2023/05/13 02:50:17;;;;;;;0.20;0.20;;;8.40;99.90;;;;;;5028512;28;20120;-82
2023/05/13 02:52:43;;;;;;;0.43;0.43;;;8.40;99.90;;;;;;5028690;28;20053;-83
2023/05/13 02:55:09;;;;;;;0.25;0.22;;;8.50;99.90;;;;;;5027497;28;20034;-82
2023/05/13 02:57:36;;;;;;;0.47;0.47;;;8.50;99.90;;;;;;5046909;28;20060;-83
2023/05/13 03:00:03;;;;;;;0.25;0.20;;;8.50;99.90;;;;;;5051331;28;20053;-83
2023/05/13 03:02:29;;;;;;;0.03;0.03;;;8.50;99.90;;;;;;5049529;28;20528;-82
2023/05/13 03:04:55;;;;;;;0.13;0.13;;;8.50;99.90;;;;;;5049743;28;20049;-83
2023/05/13 03:07:22;;;;;;;0.17;0.17;;;8.50;99.90;;;;;;5034794;28;20061;-82
2023/05/13 03:09:48;;;;;;;1.40;1.20;;;8.40;99.90;;;;;;5030780;28;20416;-83
2023/05/13 03:12:14;;;;;;;0.35;0.35;;;8.50;99.90;;;;;;5030351;28;20046;-83
2023/05/13 03:14:40;;;;;;;1.15;1.05;;;8.50;99.90;;;;;;5030083;28;20077;-82
2023/05/13 03:17:05;;;;;;;1.38;0.75;;;8.40;99.90;;;;;;5039773;28;20045;-83
2023/05/13 03:19:34;;;;;;;1.92;1.48;;;8.30;99.90;;;;;;5049445;28;20119;-83
2023/05/13 03:22:00;;;;;;;2.58;1.05;;;8.30;99.90;;;;;;5052104;28;20140;-82
2023/05/13 03:24:26;;;;;;;0.88;0.80;;;8.30;99.90;;;;;;5040567;28;20087;-83
2023/05/13 03:26:52;;;;;;;2.20;1.05;;;8.20;99.90;;;;;;5030117;28;20041;-83
2023/05/13 03:29:17;;;;;;;0.40;0.30;;;8.30;99.90;;;;;;5047061;28;20163;-82
2023/05/13 03:31:43;;;;;;;1.00;0.85;;;8.20;99.90;;;;;;5048466;28;20041;-82
2023/05/13 03:34:09;;;;;;;0.20;0.15;;;8.20;99.90;;;;;;5068015;28;20024;-82
2023/05/13 03:36:34;;;;;;;0.73;0.50;;;8.20;99.90;;;;;;5071884;28;20025;-83
2023/05/13 03:39:00;;;;;;;0.55;0.32;;;8.20;99.90;;;;;;5072738;28;20045;-82
2023/05/13 03:41:27;;;;;;;0.38;0.38;;;8.20;99.90;;;;;;5061600;28;20045;-83
2023/05/13 03:43:53;;;;;;;2.35;1.27;;;9.40;99.90;;;;;;5058117;28;20092;-81
2023/05/13 03:46:19;;;;;;;2.10;0.77;;;8.30;99.90;;;;;;5051134;28;20053;-82
2023/05/13 03:48:44;;;;;;;2.55;1.73;;;8.40;99.90;;;;;;5035449;28;20558;-83
2023/05/13 03:51:10;;;;;;;0.43;0.43;;;8.50;99.90;;;;;;5042049;28;20029;-83
2023/05/13 03:53:36;;;;;;;0.30;0.30;;;8.50;99.90;;;;;;5036327;28;20041;-83
2023/05/13 03:56:01;;;;;;;2.55;0.80;;;8.60;99.90;;;;;;5036268;28;20069;-83
2023/05/13 03:58:27;;;;;;;1.85;1.13;;;8.70;99.90;;;;;;5036131;28;20098;-82
2023/05/13 04:00:53;;;;;;;0.52;0.52;;;8.70;99.90;;;;;;5035933;28;20049;-82
2023/05/13 04:03:18;;;;;;;1.75;1.48;;;8.80;99.90;;;;;;5035817;28;20048;-82
2023/05/13 04:05:47;;;;;;;1.17;1.08;;;8.90;99.90;;;;;;5048910;28;20055;-82
2023/05/13 04:08:13;;;;;;;1.35;1.08;;;8.90;99.90;;;;;;5054926;28;20045;-82
2023/05/13 04:10:39;;;;;;;2.47;1.30;;;8.90;99.90;;;;;;5054915;28;20072;-82
2023/05/13 04:13:05;;;;;;;0.88;0.70;;;9.00;99.90;;;;;;5055742;28;20545;-82
2023/05/13 04:15:31;;;;;;;0.50;0.50;;;9.00;99.90;;;;;;5042607;28;20046;-82
2023/05/13 04:17:57;;;;;;;0.20;0.20;;;9.10;99.90;;;;;;5049067;28;20593;-83
2023/05/13 04:20:22;;;;;;;2.38;1.17;;;9.30;99.90;;;;;;5054378;28;20118;-82
2023/05/13 04:22:49;;;;;;;1.25;0.75;;;9.30;99.90;;;;;;5055733;28;20037;-83
2023/05/13 04:25:14;;;;;;;1.30;0.68;;;9.40;99.90;;;;;;5046454;28;20534;-83
2023/05/13 04:27:40;;;;;;;0.85;0.85;;;9.40;99.90;;;;;;5046209;28;20045;-82
2023/05/13 04:30:06;;;;;;;1.35;1.15;;;9.40;99.90;;;;;;5055457;28;20041;-82
2023/05/13 04:32:32;;;;;;;0.40;0.40;;;9.50;99.90;;;;;;5054998;28;20095;-82
2023/05/13 04:34:57;;;;;;;2.97;0.77;;;9.60;99.90;;;;;;5054036;28;20045;-82
2023/05/13 04:37:23;;;;;;;2.72;2.13;;;9.60;99.90;;;;;;5048213;28;20041;-83
2023/05/13 04:39:49;;;;;;;1.05;1.02;;;9.70;99.90;;;;;;5035304;28;20045;-84
2023/05/13 04:42:15;;;;;;;1.90;0.88;;;9.80;99.90;;;;;;5035219;28;20130;-83
2023/05/13 04:44:41;;;;;;;1.00;0.82;;;9.90;99.90;;;;;;5035239;28;20045;-83
2023/05/13 04:47:07;;;;;;;2.00;1.60;;;10.00;99.90;;;;;;5034847;28;20101;-82
2023/05/13 04:49:33;;;;;;;1.58;1.42;;;10.10;99.90;;;;;;5035581;28;20076;-83
2023/05/13 04:52:01;;;;;;;0.50;0.50;;;10.10;99.90;;;;;;5035377;28;20451;-83
2023/05/13 04:54:26;;;;;;;1.45;0.82;;;10.90;99.90;;;;;;5037215;28;20053;-83
2023/05/13 04:56:52;;;;;;;2.28;1.13;;;10.30;99.90;;;;;;5053543;28;20061;-82
2023/05/13 04:59:18;;;;;;;2.72;2.05;;;10.60;99.90;;;;;;5055688;28;20057;-82
2023/05/13 05:01:43;;;;;;;0.95;0.90;;;10.60;99.90;;;;;;5054332;28;20060;-82
2023/05/13 05:04:10;;;;;;;1.13;0.95;;;10.60;99.90;;;;;;5056670;28;20045;-83
2023/05/13 05:06:35;;;;;;;0.93;0.90;;;10.80;99.90;;;;;;5044841;28;20273;-83
2023/05/13 05:09:01;;;;;;;2.00;1.48;;;10.80;99.90;;;;;;5054237;28;20056;-83
2023/05/13 05:11:26;;;;;;;1.00;0.52;;;10.90;99.90;;;;;;5054378;28;20124;-83
2023/05/13 05:13:52;;;;;;;0.93;0.90;;;11.00;99.90;;;;;;5054994;28;20475;-82
2023/05/13 05:16:18;;;;;;;0.68;0.40;;;11.10;53.00;;;;;;5049124;28;20037;-83
2023/05/13 05:18:43;;;;;;;2.00;0.50;;;11.20;1.00;;;;;;5052315;28;20084;-83
2023/05/13 05:21:09;;;;;;;0.25;0.25;;;11.30;99.90;;;;;;5054092;28;20040;-83
2023/05/13 05:23:35;;;;;;;2.10;1.15;;;11.40;99.90;;;;;;5052810;28;20052;-83
2023/05/13 05:26:02;;;;;;;1.35;1.25;;;11.50;94.70;;;;;;5039880;28;20440;-83
2023/05/13 05:28:28;;;;;;;1.75;1.20;;;11.70;1.00;;;;;;5037959;28;20050;-83
2023/05/13 05:30:54;;;;;;;1.77;1.38;;;12.50;99.90;;;;;;5057191;28;20668;-83
2023/05/13 05:33:20;;;;;;;1.10;0.47;;;13.10;99.90;;;;;;5043782;28;20041;-83
2023/05/13 05:35:46;;;;;;;0.65;0.55;;;13.70;1.00;;;;;;5049291;28;20088;-83
2023/05/13 05:38:11;;;;;;;0.38;0.10;;;14.80;9.30;;;;;;5049658;28;20104;-83
2023/05/13 05:40:40;;;;;;;3.55;1.60;;;14.40;21.20;;;;;;5058657;28;20068;-83
2023/05/13 05:43:06;;;;;;;3.70;1.25;;;14.90;99.90;;;;;;5055632;28;20091;-82
2023/05/13 05:45:34;;;;;;;0.52;0.52;;;15.20;99.90;;;;;;5038312;28;20176;-83
2023/05/13 05:48:00;;;;;;;0.20;0.20;;;15.10;94.50;;;;;;5037946;28;20083;-84
2023/05/13 05:50:27;;;;;;;1.65;1.10;;;15.50;72.60;;;;;;5045568;28;20081;-84
2023/05/13 05:52:53;;;;;;;13.05;1.65;;;15.90;1.00;;;;;;5047716;28;20530;-83
2023/05/13 05:55:19;;;;;;;1.45;0.70;;;16.30;1.00;;;;;;5043173;28;20057;-83
2023/05/13 05:57:45;;;;;;;1.02;0.95;;;16.50;1.00;;;;;;5026257;28;20103;-83
2023/05/13 06:00:11;;;;;;;1.77;0.98;;;16.60;1.00;;;;;;5025328;28;20055;-83
2023/05/13 06:02:37;;;;;;;1.85;0.68;;;16.50;1.00;;;;;;5025776;28;20757;-83
2023/05/13 06:05:03;;;;;;;1.38;0.90;;;16.50;1.00;;;;;;5026736;28;20139;-82
2023/05/13 06:07:28;;;;;;;1.83;0.85;;;16.40;1.00;;;;;;5025979;28;20099;-82
2023/05/13 06:09:54;;;;;;;0.20;0.20;;;16.50;99.90;;;;;;5030461;28;20127;-83
2023/05/13 06:12:21;;;;;;;1.13;1.00;;;16.70;99.90;;;;;;5057690;28;20083;-84
2023/05/13 06:14:47;;;;;;;0.68;0.65;;;17.00;99.90;;;;;;5052119;28;20060;-84
2023/05/13 06:17:16;;;;;;;1.98;0.95;;;17.40;99.90;;;;;;5033059;28;20622;-82
2023/05/13 06:19:41;;;;;;;3.20;1.02;;;18.30;99.90;;;;;;5052314;28;20060;-83
2023/05/13 06:22:08;;;;;;;4.60;1.42;;;17.70;99.90;;;;;;5050808;28;20049;-83
2023/05/13 06:24:34;;;;;;;0.30;0.30;;;17.80;99.90;;;;;;5049167;28;20432;-83
2023/05/13 06:27:00;;;;;;;1.20;0.77;;;17.70;99.90;;;;;;5045462;28;20112;-84
2023/05/13 06:29:26;;;;;;;0.70;0.68;;;18.40;99.90;;;;;;5047732;28;20057;-85
2023/05/13 06:31:52;;;;;;;1.05;0.70;;;18.70;99.90;;;;;;5052291;28;20105;-83
2023/05/13 06:34:17;;;;;;;0.77;0.77;;;19.10;99.90;;;;;;5052137;28;20041;-83
2023/05/13 06:36:43;;;;;;;2.65;1.02;;;19.30;99.90;;;;;;5043531;28;20162;-83
2023/05/13 06:39:12;;;;;;;0.40;0.40;;;19.40;99.90;;;;;;5032461;28;20128;-83
2023/05/13 06:41:39;;;;;;;1.42;0.82;;;19.40;99.90;;;;;;5030897;28;20492;-83
2023/05/13 06:44:06;;;;;;;0.57;0.47;;;19.50;99.90;;;;;;5030939;28;20056;-84
2023/05/13 06:46:32;;;;;;;0.60;0.60;;;19.50;99.90;;;;;;5042561;28;20064;-83
2023/05/13 06:48:57;;;;;;;0.90;0.75;;;20.00;99.90;;;;;;5049392;28;20561;-84
2023/05/13 06:51:27;;;;;;;0.15;0.15;;;20.50;99.90;;;;;;5047854;28;20056;-84
2023/05/13 06:53:53;;;;;;;0.93;0.60;;;20.60;99.90;;;;;;5052112;28;20067;-83
2023/05/13 06:56:21;;;;;;;1.13;1.02;;;21.00;99.90;;;;;;5063367;28;20279;-83
2023/05/13 06:58:51;;;;;;;0.32;0.32;;;20.30;99.90;;;;;;5073109;28;20067;-84
2023/05/13 07:01:17;;;;;;;0.80;0.65;;;20.50;99.90;;;;;;5073139;28;20031;-84
2023/05/13 07:03:43;;;;;;;1.45;1.17;;;21.80;99.90;;;;;;5072359;28;20025;-83
2023/05/13 07:06:09;;;;;;;1.10;0.82;;;21.20;99.90;;;;;;5063548;28;20033;-84
2023/05/13 07:08:39;;;;;;;4.82;0.90;;;20.70;99.90;;;;;;5068277;28;20036;-83
2023/05/13 07:11:05;;;;;;;1.10;0.90;;;21.10;99.90;;;;;;5069917;28;20036;-84
2023/05/13 07:13:32;;;;;;;1.00;0.90;;;21.00;99.90;;;;;;5069886;28;20100;-84
2023/05/13 07:15:58;;;;;;;0.30;0.30;;;20.90;99.90;;;;;;5055796;28;20045;-83
2023/05/13 07:18:23;;;;;;;0.43;0.38;;;21.20;99.90;;;;;;5052673;28;20136;-84
2023/05/13 07:20:49;;;;;;;1.02;0.90;;;21.70;99.90;;;;;;5055879;28;20074;-84
2023/05/13 07:23:14;;;;;;;1.35;0.55;;;22.20;99.90;;;;;;5048579;28;20043;-83
2023/05/13 07:25:40;;;;;;;0.57;0.57;;;22.20;99.90;;;;;;5049551;28;20056;-82
2023/05/13 07:28:06;;;;;;;1.08;0.57;;;22.00;99.90;;;;;;5051927;28;20049;-82
2023/05/13 07:30:31;;;;;;;0.35;0.35;;;22.40;99.90;;;;;;5071314;28;20072;-83
2023/05/13 07:32:57;;;;;;;1.17;0.45;;;22.70;99.90;;;;;;5068848;28;20049;-82
2023/05/13 07:35:23;;;;;;;0.35;0.32;;;23.30;99.90;;;;;;5051307;28;20073;-84
2023/05/13 07:37:48;;;;;;;1.60;0.82;;;24.00;99.90;;;;;;5049036;28;20041;-84
2023/05/13 07:40:14;;;;;;;5.50;1.08;;;23.80;99.90;;;;;;5048219;28;20103;-83
2023/05/13 07:42:40;;;;;;;1.17;0.95;;;23.90;99.90;;;;;;5047848;28;20044;-84
2023/05/13 07:45:09;;;;;;;1.88;1.25;;;24.10;99.90;;;;;;5038633;28;20425;-84
2023/05/13 07:47:35;;;;;;;0.30;0.20;;;23.80;99.90;;;;;;5029668;28;20091;-83
2023/05/13 07:50:01;;;;;;;1.10;0.98;;;23.90;99.90;;;;;;5028256;28;20041;-84
2023/05/13 07:52:26;;;;;;;0.70;0.60;;;23.70;99.90;;;;;;5027658;28;20046;-84
2023/05/13 07:54:53;;;;;;;0.30;0.30;;;23.80;99.90;;;;;;5046254;28;20041;-83
2023/05/13 07:57:19;;;;;;;0.65;0.60;;;24.00;99.90;;;;;;5048038;28;20068;-83
2023/05/13 07:59:44;;;;;;;0.40;0.32;;;24.20;99.90;;;;;;5047817;28;20045;-84
2023/05/13 08:02:11;;;;;;;0.85;0.43;;;24.40;99.90;;;;;;5047819;28;20072;-83
2023/05/13 08:04:37;;;;;;;0.30;0.20;;;24.70;99.90;;;;;;5045342;28;20106;-84
2023/05/13 08:07:02;;;;;;;0.28;0.28;;;25.00;99.90;;;;;;5029383;28;20107;-83
2023/05/13 08:09:28;;;;;;;0.77;0.47;;;24.80;99.90;;;;;;5033244;28;20100;-84
2023/05/13 08:11:54;;;;;;;0.40;0.40;;;24.60;99.90;;;;;;5030939;28;20103;-83
2023/05/13 08:14:20;;;;;;;0.43;0.30;;;25.20;99.90;;;;;;5034486;28;20051;-84
2023/05/13 08:16:46;;;;;;;0.70;0.40;;;25.20;99.90;;;;;;5030346;28;20050;-83
2023/05/13 08:19:15;;;;;;;2.08;0.95;;;24.80;99.90;;;;;;5030363;28;20037;-83
2023/05/13 08:21:41;;;;;;;4.45;0.65;;;25.50;99.90;;;;;;5029332;28;20085;-82
2023/05/13 08:24:07;;;;;;;9.38;1.10;;;25.80;99.90;;;;;;5036915;28;20076;-83
2023/05/13 08:26:33;;;;;;;0.85;0.52;;;26.40;99.90;;;;;;5030264;28;20072;-84
2023/05/13 08:28:59;;;;;;;0.30;0.30;;;26.00;99.90;;;;;;5029354;28;20045;-83
2023/05/13 08:31:25;;;;;;;1.90;1.15;;;26.00;99.90;;;;;;5030104;28;20076;-83
2023/05/13 08:33:52;;;;;;;0.10;0.10;;;26.40;99.90;;;;;;5030091;28;20102;-85
2023/05/13 08:36:18;;;;;;;1.55;0.70;;;26.60;99.90;;;;;;5029466;28;20041;-83
2023/05/13 08:38:44;;;;;;;0.40;0.40;;;26.80;99.90;;;;;;5031185;28;20124;-84
2023/05/13 08:41:12;;;;;;;0.65;0.65;;;26.60;99.90;;;;;;5028289;28;20078;-84
2023/05/13 08:43:39;;;;;;;0.17;0.17;;;26.80;99.90;;;;;;5029900;28;20087;-83
2023/05/13 08:46:10;;;;;;;0.98;0.55;;;27.10;99.90;;;;;;5028994;28;20119;-83
2023/05/13 08:48:40;;;;;;;0.88;0.68;;;27.30;99.90;;;;;;5028231;28;20083;-83
2023/05/13 08:51:07;;;;;;;0.20;0.20;;;26.80;99.90;;;;;;5028110;28;20088;-84
2023/05/13 08:53:34;;;;;;;0.40;0.20;;;26.70;99.90;;;;;;5031467;28;20052;-84
2023/05/13 08:56:00;;;;;;;0.68;0.20;;;26.90;99.90;;;;;;5039284;28;20087;-84
2023/05/13 08:58:26;;;;;;;0.63;0.50;;;27.10;99.90;;;;;;5047738;28;20048;-84
2023/05/13 09:00:53;;;;;;;0.85;0.68;;;26.60;99.90;;;;;;5056975;28;20469;-84
2023/05/13 09:03:20;;;;;;;1.02;0.55;;;26.90;99.90;;;;;;5051281;28;20492;-83
2023/05/13 09:05:46;;;;;;;1.15;0.93;;;26.90;99.90;;;;;;5029047;28;20097;-83
2023/05/13 09:08:12;;;;;;;0.93;0.57;;;27.00;99.90;;;;;;5029623;28;20037;-84
2023/05/13 09:10:37;;;;;;;0.20;0.20;;;26.80;99.90;;;;;;5031752;28;20037;-84
2023/05/13 09:13:04;;;;;;;1.08;0.50;;;26.90;99.90;;;;;;5034876;28;20037;-83
2023/05/13 09:15:30;;;;;;;0.13;0.13;;;26.90;99.90;;;;;;5046161;28;20056;-84
2023/05/13 09:18:02;;;;;;;0.00;0.00;;;27.20;99.90;;;;;;5046405;28;20037;-84
2023/05/13 09:20:28;;;;;;;0.65;0.55;;;27.40;99.90;;;;;;5047594;28;20119;-83
2023/05/13 09:22:58;;;;;;;2.08;1.25;;;27.50;99.90;;;;;;5037042;28;20409;-84
2023/05/13 09:25:25;;;;;;;1.38;0.82;;;27.50;99.90;;;;;;5046666;28;20045;-84
2023/05/13 09:27:58;;;;;;;1.20;0.88;;;28.00;99.90;;;;;;5046571;28;20064;-83
2023/05/13 09:30:29;;;;;;;0.52;0.40;;;28.00;99.90;;;;;;5047052;28;20045;-84
2023/05/13 09:33:12;;;;;;;0.25;0.22;;;28.00;99.90;;;;;;5045881;28;20449;-83
2023/05/13 09:35:48;;;;;;;0.65;0.65;;;28.10;99.90;;;;;;5045107;28;20048;-83
2023/05/13 09:38:14;;;;;;;0.13;0.13;;;28.00;99.90;;;;;;5045458;28;20443;-84
2023/05/13 09:40:40;;;;;;;2.90;0.88;;;27.90;99.90;;;;;;5045135;28;20103;-84
2023/05/13 09:43:07;;;;;;;0.17;0.17;;;27.80;99.90;;;;;;5045040;28;20048;-84
2023/05/13 09:45:33;;;;;;;0.35;0.25;;;27.70;99.90;;;;;;5036477;28;20119;-83
2023/05/13 09:47:59;;;;;;;0.73;0.55;;;27.00;99.90;;;;;;5025108;28;20037;-83
2023/05/13 09:50:26;;;;;;;1.70;0.80;;;26.90;99.90;;;;;;5026148;28;20048;-84
2023/05/13 09:52:51;;;;;;;0.85;0.47;;;26.30;99.90;;;;;;5026279;28;20404;-84
2023/05/13 09:55:17;;;;;;;0.52;0.30;;;26.40;99.90;;;;;;5045205;28;20061;-83
2023/05/13 09:57:45;;;;;;;0.73;0.25;;;26.30;99.90;;;;;;5044030;28;20407;-84
2023/05/13 10:00:10;;;;;;;0.38;0.20;;;26.10;99.90;;;;;;5044639;28;20049;-84
2023/05/13 10:02:37;;;;;;;0.65;0.45;;;26.10;99.90;;;;;;5046926;28;20056;-84
2023/05/13 10:05:07;;;;;;;2.35;0.73;;;25.90;99.90;;;;;;5031932;28;20132;-85
2023/05/13 10:07:34;;;;;;;0.70;0.50;;;25.90;99.90;;;;;;5031042;28;20060;-84
2023/05/13 10:10:03;;;;;;;0.98;0.75;;;25.50;99.90;;;;;;5032663;28;20033;-84
2023/05/13 10:12:31;;;;;;;0.82;0.77;;;25.20;99.90;;;;;;5048658;28;20068;-84
2023/05/13 10:14:57;;;;;;;0.52;0.40;;;25.00;98.60;;;;;;5045401;28;20128;-84
2023/05/13 10:17:24;;;;;;;0.55;0.45;;;24.90;99.90;;;;;;5044086;28;20041;-85
2023/05/13 10:19:52;;;;;;;0.15;0.10;;;24.70;95.40;;;;;;5042536;28;20482;-84
2023/05/13 10:22:28;;;;;;;1.52;0.50;;;24.40;96.20;;;;;;5024318;28;20408;-84
2023/05/13 10:24:59;;;;;;;0.10;0.10;;;24.40;95.40;;;;;;5024666;28;20049;-83
2023/05/13 10:27:28;;;;;;;0.35;0.30;;;24.50;95.20;;;;;;5023056;28;20574;-84
2023/05/13 10:29:55;;;;;;;1.25;0.77;;;24.60;93.60;;;;;;5025145;28;20037;-84
2023/05/13 10:32:25;;;;;;;0.20;0.20;;;24.70;99.00;;;;;;5024444;28;20542;-84
2023/05/13 10:35:01;;;;;;;0.73;0.60;;;24.70;99.90;;;;;;5026097;28;20443;-85
2023/05/13 10:37:33;;;;;;;1.00;0.90;;;24.80;99.90;;;;;;5025002;28;20103;-84
2023/05/13 10:40:14;;;;;;;0.20;0.20;;;24.90;99.90;;;;;;5026345;28;20051;-84
2023/05/13 10:42:41;;;;;;;1.58;0.50;;;24.80;99.90;;;;;;5034727;28;20041;-84
2023/05/13 10:45:08;;;;;;;4.47;1.70;;;24.80;99.90;;;;;;5051462;28;20045;-85
2023/05/13 10:47:34;;;;;;;0.88;0.55;;;24.80;99.90;;;;;;5067136;28;20037;-84
2023/05/13 10:50:05;;;;;;;0.28;0.28;;;25.00;99.90;;;;;;5066562;28;20037;-84
2023/05/13 10:52:46;;;;;;;1.13;0.60;;;24.90;99.90;;;;;;5049204;28;20037;-85
2023/05/13 10:55:17;;;;;;;3.30;1.17;;;24.90;99.90;;;;;;5049126;28;20045;-85
2023/05/13 10:58:07;;;;;;;0.75;0.47;;;25.00;99.90;;;;;;5049496;28;20026;-83
2023/05/13 11:00:33;;;;;;;0.90;0.47;;;25.00;99.90;;;;;;5048964;28;20064;-84
2023/05/13 11:03:09;;;;;;;0.93;0.73;;;25.20;99.90;;;;;;5054055;28;20048;-84
2023/05/13 11:05:39;;;;;;;0.20;0.10;;;25.30;99.90;;;;;;5045626;28;20092;-83
2023/05/13 11:08:05;;;;;;;1.65;1.08;;;25.50;99.90;;;;;;5044982;28;20402;-85
2023/05/13 11:10:31;;;;;;;32.63;1.27;;;25.50;99.90;;;;;;5043011;28;20226;-84
2023/05/13 11:13:14;;;;;;;9.02;0.90;;;25.80;99.90;;;;;;5030522;28;20612;-85
2023/05/13 11:15:59;;;;;;;1.20;0.75;;;25.80;99.90;;;;;;5025137;28;20048;-84
2023/05/13 11:18:33;;;;;;;0.40;0.30;;;25.50;99.90;;;;;;5026806;28;20041;-84
2023/05/13 11:21:03;;;;;;;1.88;0.95;;;25.90;99.90;;;;;;5028096;28;20049;-84
2023/05/13 11:23:31;;;;;;;0.70;0.45;;;25.70;99.90;;;;;;5027812;28;20053;-84
2023/05/13 11:26:15;;;;;;;0.13;0.13;;;25.30;99.90;;;;;;5028505;28;20045;-84
2023/05/13 11:29:04;;;;;;;1.45;0.65;;;25.40;99.90;;;;;;5027305;28;20057;-84
2023/05/13 11:31:47;;;;;;;2.38;0.57;;;25.20;96.10;;;;;;5041383;28;20163;-84
2023/05/13 11:34:17;;;;;;;0.10;0.10;;;25.80;98.60;;;;;;5048391;28;20087;-84
2023/05/13 11:36:50;;;;;;;0.10;0.10;;;26.40;99.90;;;;;;5047312;28;20517;-85
2023/05/13 11:39:21;;;;;;;1.13;0.65;;;27.00;99.90;;;;;;5048292;28;20060;-85
2023/05/13 11:41:49;;;;;;;0.00;0.00;;;27.50;99.90;;;;;;5043451;28;20080;-85
2023/05/13 11:44:19;;;;;;;0.30;0.30;;;28.00;99.90;;;;;;5037190;28;20467;-85
2023/05/13 11:46:56;;;;;;;0.80;0.50;;;28.00;99.90;;;;;;5027774;28;20037;-84
2023/05/13 11:49:41;;;;;;;0.63;0.52;;;28.30;99.90;;;;;;5027354;28;20095;-84
2023/05/13 11:52:15;;;;;;;0.00;0.00;;;29.00;99.90;;;;;;5045715;28;20145;-84
2023/05/13 11:55:01;;;;;;;0.80;0.50;;;29.40;99.90;;;;;;5047415;28;20403;-84
2023/05/13 11:57:31;;;;;;;0.38;0.22;;;29.40;99.90;;;;;;5028360;28;20145;-85
2023/05/13 12:00:00;;;;;;;0.10;0.10;;;29.60;99.90;;;;;;5046944;28;20098;-84
2023/05/13 12:02:36;;;;;;;0.40;0.17;;;30.20;99.90;;;;;;5046704;28;20491;-85
2023/05/13 12:05:04;;;;;;;0.43;0.35;;;29.90;99.90;;;;;;5046832;28;20041;-85
2023/05/13 12:07:31;;;;;;;0.00;0.00;;;30.20;99.90;;;;;;5047131;28;20064;-85
2023/05/13 12:09:58;;;;;;;1.35;0.22;;;30.60;99.90;;;;;;5046589;28;20056;-84
2023/05/13 12:12:25;;;;;;;19.08;1.95;;;29.50;98.50;;;;;;5045339;28;20045;-84
2023/05/13 12:14:53;;;;;;;0.77;0.40;;;27.30;58.40;;;;;;5046028;28;20399;-84
2023/05/13 12:17:20;;;;;;;2.83;0.63;;;27.30;83.30;;;;;;5046191;28;20510;-84
2023/05/13 12:20:12;;;;;;;0.38;0.38;;;28.50;91.70;;;;;;5047052;28;20084;-84
2023/05/13 12:22:44;;;;;;;0.20;0.20;;;29.40;99.90;;;;;;5048218;28;20055;-84
2023/05/13 12:25:39;;;;;;;4.20;0.47;;;29.60;95.60;;;;;;5045989;28;20053;-84
2023/05/13 12:28:18;;;;;;;0.90;0.63;;;29.30;94.70;;;;;;5047543;28;20059;-83
2023/05/13 12:30:57;;;;;;;0.08;0.08;;;29.90;99.20;;;;;;5042994;28;20060;-84
2023/05/13 12:33:30;;;;;;;0.30;0.30;;;29.90;68.00;;;;;;5043071;28;20046;-85
2023/05/13 12:36:21;;;;;;;0.15;0.10;;;29.30;48.20;;;;;;5025419;28;20149;-85
2023/05/13 12:39:00;;;;;;;0.10;0.10;;;29.20;58.70;;;;;;5027333;28;20558;-85
2023/05/13 12:41:34;;;;;;;1.20;0.63;;;29.30;63.00;;;;;;5040689;28;20163;-85
2023/05/13 12:44:01;;;;;;;0.28;0.20;;;29.90;84.20;;;;;;5027242;28;20132;-84
2023/05/13 12:46:27;;;;;;;0.70;0.60;;;30.40;98.50;;;;;;5025275;28;20100;-85
2023/05/13 12:49:01;;;;;;;0.13;0.13;;;30.50;71.80;;;;;;5025851;28;20093;-84
2023/05/13 12:51:28;;;;;;;0.93;0.55;;;30.10;93.70;;;;;;5039146;28;20041;-84
2023/05/13 12:53:55;;;;;;;0.20;0.20;;;28.50;70.80;;;;;;5045410;28;20045;-84